Time;durP1;ratioP1;P1;durP2;ratioP2;P2;SDS_P1;SDS_P2;PMS_P1;PMS_P2;Temp;Humidity;BMP_temperature;BMP_pressure;BME280_temperature;BME280_humidity;BME280_pressure;Samples;Min_cycle;Max_cycle;Signal;HPM_P1;HPM_P2
2023/04/01 00:01:00;;;;;;;66.75;7.88;;;11.10;99.90;;;;;;5022033;28;20158;-85
2023/04/01 00:03:27;;;;;;;66.60;9.10;;;11.10;99.90;;;;;;5022654;28;20217;-84
2023/04/01 00:05:53;;;;;;;68.45;10.05;;;11.10;99.90;;;;;;5019837;28;20662;-85
2023/04/01 00:08:22;;;;;;;68.15;10.82;;;11.10;99.90;;;;;;5021208;28;20533;-85
2023/04/01 00:10:48;;;;;;;67.10;9.07;;;11.10;99.90;;;;;;5020412;28;20166;-84
2023/04/01 00:13:14;;;;;;;67.20;9.03;;;11.10;99.90;;;;;;5021697;28;20193;-85
2023/04/01 00:15:40;;;;;;;67.30;6.82;;;11.20;99.90;;;;;;5021539;28;20165;-85
2023/04/01 00:18:06;;;;;;;67.07;9.23;;;11.20;99.90;;;;;;5020852;28;20228;-85
2023/04/01 00:20:31;;;;;;;66.07;9.53;;;11.10;99.90;;;;;;5021404;28;20173;-85
2023/04/01 00:22:57;;;;;;;65.47;8.30;;;11.10;99.90;;;;;;5020895;28;20182;-85
2023/04/01 00:25:24;;;;;;;69.07;9.87;;;11.10;99.90;;;;;;5019078;28;20212;-85
2023/04/01 00:27:49;;;;;;;65.55;8.45;;;11.10;99.90;;;;;;5021199;28;20178;-84
2023/04/01 00:30:15;;;;;;;68.50;12.10;;;11.10;99.90;;;;;;5021337;28;20280;-85
2023/04/01 00:32:41;;;;;;;66.40;9.73;;;11.10;99.90;;;;;;5018841;28;20432;-85
2023/04/01 00:35:07;;;;;;;66.70;11.20;;;11.10;99.90;;;;;;5021530;28;20412;-84
2023/04/01 00:37:36;;;;;;;67.40;13.40;;;11.10;99.90;;;;;;5021171;28;20166;-85
2023/04/01 00:40:07;;;;;;;68.78;12.20;;;11.10;99.90;;;;;;5021065;28;20431;-85
2023/04/01 00:42:33;;;;;;;66.53;9.18;;;11.10;99.90;;;;;;5019075;28;20190;-85
2023/04/01 00:45:18;;;;;;;69.80;12.68;;;11.10;99.90;;;;;;5019601;28;20165;-85
2023/04/01 00:47:44;;;;;;;66.57;7.28;;;11.00;99.90;;;;;;5019669;28;20170;-84
2023/04/01 00:50:10;;;;;;;67.40;8.90;;;11.10;99.90;;;;;;5020556;28;20242;-84
2023/04/01 00:52:36;;;;;;;71.53;10.67;;;11.10;99.90;;;;;;5020024;28;20190;-84
2023/04/01 00:55:09;;;;;;;67.60;11.27;;;11.10;99.90;;;;;;5019741;28;20420;-85
2023/04/01 00:57:37;;;;;;;71.00;15.23;;;11.10;99.90;;;;;;5018794;28;20162;-85
2023/04/01 01:00:07;;;;;;;68.47;17.38;;;11.00;99.90;;;;;;5021157;28;20167;-85
2023/04/01 01:02:34;;;;;;;70.15;18.90;;;11.00;99.90;;;;;;5020403;28;20177;-85
2023/04/01 01:05:00;;;;;;;71.45;21.48;;;10.90;99.90;;;;;;5022442;28;20166;-85
2023/04/01 01:07:31;;;;;;;69.47;19.17;;;11.00;99.90;;;;;;5023827;28;20221;-85
2023/04/01 01:10:17;;;;;;;68.57;18.20;;;11.00;99.90;;;;;;5023563;28;20225;-84
2023/04/01 01:12:55;;;;;;;70.30;18.73;;;11.00;99.90;;;;;;5024502;28;20203;-83
2023/04/01 01:15:45;;;;;;;67.80;14.02;;;11.00;99.90;;;;;;5024563;28;20184;-84
2023/04/01 01:18:38;;;;;;;65.63;9.63;;;11.00;99.90;;;;;;5024168;28;20143;-84
2023/04/01 01:21:20;;;;;;;66.30;8.13;;;11.10;99.90;;;;;;5024413;28;20155;-85
2023/04/01 01:23:57;;;;;;;65.13;7.85;;;11.10;99.90;;;;;;5023251;28;20190;-85
2023/04/01 01:26:46;;;;;;;65.38;7.20;;;11.10;99.90;;;;;;5023780;28;20641;-84
2023/04/01 01:29:42;;;;;;;65.85;9.02;;;11.20;99.90;;;;;;5024483;28;20173;-84
2023/04/01 01:32:23;;;;;;;65.90;9.88;;;11.10;99.90;;;;;;5001864;28;20178;-85
2023/04/01 01:35:05;;;;;;;66.43;8.18;;;11.10;99.90;;;;;;5023254;28;20589;-84
2023/04/01 01:37:32;;;;;;;67.35;10.85;;;11.10;99.90;;;;;;5024284;28;20158;-85
2023/04/01 01:40:06;;;;;;;70.60;9.73;;;11.10;99.90;;;;;;5023348;28;20163;-84
2023/04/01 01:42:36;;;;;;;66.90;11.23;;;11.10;99.90;;;;;;5021295;28;20243;-85
2023/04/01 01:45:05;;;;;;;75.13;22.95;;;11.10;99.90;;;;;;5022878;28;20603;-85
2023/04/01 01:47:32;;;;;;;67.78;13.27;;;11.10;99.90;;;;;;5023111;28;20166;-85
2023/04/01 01:49:59;;;;;;;68.82;16.25;;;11.00;99.90;;;;;;5022883;28;20158;-84
2023/04/01 01:52:28;;;;;;;67.43;14.07;;;11.00;99.90;;;;;;5022815;28;20165;-85
2023/04/01 01:55:00;;;;;;;70.72;14.00;;;11.00;99.90;;;;;;5023308;28;20166;-85
2023/04/01 01:57:30;;;;;;;68.40;14.80;;;11.00;99.90;;;;;;5024267;28;20173;-85
2023/04/01 02:00:13;;;;;;;71.13;20.40;;;10.90;99.90;;;;;;5024276;28;20146;-85
2023/04/01 02:02:47;;;;;;;70.60;19.15;;;10.90;99.90;;;;;;5023867;28;20181;-85
2023/04/01 02:05:27;;;;;;;69.97;17.30;;;10.80;99.90;;;;;;5023101;28;20172;-85
2023/04/01 02:08:01;;;;;;;71.22;17.38;;;10.80;99.90;;;;;;5023478;28;20621;-85
2023/04/01 02:10:28;;;;;;;71.22;19.20;;;10.80;99.90;;;;;;5023058;28;20147;-85
2023/04/01 02:12:59;;;;;;;70.88;19.33;;;10.80;99.90;;;;;;5023780;28;20205;-85
2023/04/01 02:15:30;;;;;;;69.45;14.52;;;10.70;99.90;;;;;;5022317;28;20166;-86
2023/04/01 02:17:56;;;;;;;69.95;14.07;;;10.70;99.90;;;;;;5023687;28;20233;-86
2023/04/01 02:20:24;;;;;;;69.32;16.88;;;10.70;99.90;;;;;;5023892;28;20197;-86
2023/04/01 02:22:52;;;;;;;69.65;14.88;;;10.70;99.90;;;;;;5023955;28;20213;-86
2023/04/01 02:25:28;;;;;;;67.90;12.73;;;10.70;99.90;;;;;;5023317;28;20166;-85
2023/04/01 02:27:56;;;;;;;68.97;13.85;;;10.70;99.90;;;;;;5022696;28;20169;-86
2023/04/01 02:30:23;;;;;;;67.90;10.32;;;10.70;99.90;;;;;;5024311;28;20170;-86
2023/04/01 02:32:49;;;;;;;68.05;10.80;;;10.70;99.90;;;;;;5022646;28;20228;-87
2023/04/01 02:35:17;;;;;;;71.13;9.77;;;10.60;99.90;;;;;;5022342;28;20216;-86
2023/04/01 02:37:45;;;;;;;67.85;7.18;;;10.60;99.90;;;;;;5022396;28;20169;-86
2023/04/01 02:40:13;;;;;;;68.00;6.05;;;10.50;99.90;;;;;;5022828;28;20164;-86
2023/04/01 02:42:39;;;;;;;69.45;6.40;;;10.50;99.90;;;;;;5021218;28;20286;-85
2023/04/01 02:45:09;;;;;;;67.57;7.63;;;10.40;99.90;;;;;;5021348;28;20177;-87
2023/04/01 02:47:37;;;;;;;65.68;6.43;;;10.40;99.90;;;;;;5021443;28;20173;-87
2023/04/01 02:50:04;;;;;;;68.03;7.53;;;10.40;99.90;;;;;;5021710;28;20200;-86
2023/04/01 02:52:30;;;;;;;66.15;7.10;;;10.40;99.90;;;;;;5021678;28;20189;-87
2023/04/01 02:54:57;;;;;;;66.60;9.07;;;10.30;99.90;;;;;;5021564;28;20220;-86
2023/04/01 02:57:23;;;;;;;66.55;8.07;;;10.40;99.90;;;;;;5020038;28;20417;-86
2023/04/01 02:59:49;;;;;;;66.60;8.45;;;10.30;99.90;;;;;;5022011;28;20188;-86
2023/04/01 03:02:15;;;;;;;65.73;6.80;;;10.30;99.90;;;;;;5023441;28;20669;-85
2023/04/01 03:04:41;;;;;;;65.43;6.55;;;10.40;99.90;;;;;;5023741;28;20182;-86
2023/04/01 03:07:08;;;;;;;69.30;9.67;;;10.40;99.90;;;;;;5024833;28;20168;-86
2023/04/01 03:09:34;;;;;;;68.72;11.85;;;10.50;99.90;;;;;;5025057;28;20409;-85
2023/04/01 03:11:59;;;;;;;68.20;13.70;;;10.50;99.90;;;;;;5022911;28;20257;-85
2023/04/01 03:14:25;;;;;;;66.20;6.60;;;10.40;99.90;;;;;;5023769;28;20436;-86
2023/04/01 03:16:51;;;;;;;68.57;8.57;;;10.30;99.90;;;;;;5023105;28;20170;-84
2023/04/01 03:19:16;;;;;;;66.90;8.97;;;10.30;99.90;;;;;;5022648;28;20411;-86
2023/04/01 03:21:42;;;;;;;66.90;10.40;;;10.40;99.90;;;;;;5022160;28;20170;-86
2023/04/01 03:24:08;;;;;;;68.87;9.87;;;10.40;99.90;;;;;;5021868;28;20287;-85
2023/04/01 03:26:33;;;;;;;68.50;13.43;;;10.40;99.90;;;;;;5021674;28;20166;-86
2023/04/01 03:28:59;;;;;;;68.43;13.67;;;10.40;99.90;;;;;;5020281;28;20170;-86
2023/04/01 03:31:25;;;;;;;70.63;14.83;;;10.50;99.90;;;;;;5021791;28;20173;-85
2023/04/01 03:33:51;;;;;;;71.90;18.80;;;10.50;99.90;;;;;;5020931;28;20657;-85
2023/04/01 03:36:17;;;;;;;73.20;18.13;;;10.50;99.90;;;;;;5022080;28;20204;-86
2023/04/01 03:38:44;;;;;;;67.70;13.00;;;10.50;99.90;;;;;;5020538;28;20174;-85
2023/04/01 03:41:15;;;;;;;71.00;19.17;;;10.50;99.90;;;;;;5022034;28;20166;-85
2023/04/01 03:43:41;;;;;;;75.68;19.27;;;10.50;99.90;;;;;;5021826;28;20189;-85
2023/04/01 03:46:07;;;;;;;71.22;20.45;;;10.50;99.90;;;;;;5021446;28;20499;-86
2023/04/01 03:48:33;;;;;;;69.30;16.23;;;10.50;99.90;;;;;;5022071;28;20162;-86
2023/04/01 03:50:59;;;;;;;70.03;19.40;;;10.50;99.90;;;;;;5021983;28;20181;-85
2023/04/01 03:53:24;;;;;;;70.70;16.30;;;10.50;99.90;;;;;;5020990;28;20225;-85
2023/04/01 03:55:51;;;;;;;68.67;16.87;;;10.40;99.90;;;;;;5021302;28;20252;-86
2023/04/01 03:58:16;;;;;;;70.88;20.95;;;10.50;99.90;;;;;;5021269;28;20166;-85
2023/04/01 04:00:42;;;;;;;72.60;27.30;;;10.60;99.90;;;;;;5021623;28;20170;-85
2023/04/01 04:03:08;;;;;;;71.33;19.97;;;10.60;99.90;;;;;;5021371;28;20193;-85
2023/04/01 04:05:34;;;;;;;70.17;20.87;;;10.50;99.90;;;;;;5021287;28;20189;-85
2023/04/01 04:07:59;;;;;;;71.77;23.93;;;10.50;99.90;;;;;;5021315;28;20186;-85
2023/04/01 04:10:25;;;;;;;68.37;17.53;;;10.60;99.90;;;;;;5020258;28;20401;-85
2023/04/01 04:12:52;;;;;;;71.13;22.00;;;10.60;99.90;;;;;;5021705;28;20185;-85
2023/04/01 04:15:18;;;;;;;69.57;19.70;;;10.70;99.90;;;;;;5021605;28;20181;-85
2023/04/01 04:17:47;;;;;;;70.57;23.20;;;10.70;99.90;;;;;;5020175;28;20165;-85
2023/04/01 04:20:13;;;;;;;70.47;22.85;;;10.70;99.90;;;;;;5021710;28;20460;-85
2023/04/01 04:22:39;;;;;;;69.93;21.13;;;10.60;99.90;;;;;;5020978;28;20676;-85
2023/04/01 04:25:05;;;;;;;71.27;21.53;;;10.60;99.90;;;;;;5019473;28;20178;-85
2023/04/01 04:27:31;;;;;;;71.85;25.42;;;10.50;99.90;;;;;;5021204;28;20175;-86
2023/04/01 04:29:56;;;;;;;68.97;17.20;;;10.50;99.90;;;;;;5019525;28;20162;-85
2023/04/01 04:32:22;;;;;;;73.20;20.63;;;10.50;99.90;;;;;;5020982;28;20643;-85
2023/04/01 04:34:47;;;;;;;71.37;21.10;;;10.60;99.90;;;;;;5020552;28;20735;-85
2023/04/01 04:37:13;;;;;;;70.77;21.97;;;10.60;99.90;;;;;;5020847;28;20165;-86
2023/04/01 04:39:39;;;;;;;69.70;21.70;;;10.60;99.90;;;;;;5022768;28;20162;-86
2023/04/01 04:42:05;;;;;;;72.80;19.33;;;10.60;99.90;;;;;;5024763;28;20181;-86
2023/04/01 04:44:31;;;;;;;69.88;19.90;;;10.50;99.90;;;;;;5025251;28;20193;-86
2023/04/01 04:46:56;;;;;;;68.00;15.40;;;10.50;99.90;;;;;;5025657;28;20177;-86
2023/04/01 04:49:22;;;;;;;68.60;13.73;;;10.50;99.90;;;;;;5023478;28;20212;-86
2023/04/01 04:51:48;;;;;;;67.40;12.60;;;10.50;99.90;;;;;;5025793;28;20251;-86
2023/04/01 04:54:13;;;;;;;67.90;15.23;;;10.40;99.90;;;;;;5025947;28;20426;-86
2023/04/01 04:56:39;;;;;;;68.10;13.20;;;10.50;99.90;;;;;;5025316;28;20262;-85
2023/04/01 04:59:06;;;;;;;67.80;13.17;;;10.50;99.90;;;;;;5024080;28;20240;-85
2023/04/01 05:01:33;;;;;;;69.03;14.60;;;10.50;99.90;;;;;;5026052;28;20745;-85
2023/04/01 05:03:59;;;;;;;67.57;12.80;;;10.50;99.90;;;;;;5025478;28;20193;-85
2023/04/01 05:06:29;;;;;;;68.85;13.63;;;10.50;99.90;;;;;;5024777;28;20641;-86
2023/04/01 05:08:55;;;;;;;68.22;15.40;;;10.50;99.90;;;;;;5024814;28;20216;-85
2023/04/01 05:11:21;;;;;;;69.53;12.07;;;10.50;99.90;;;;;;5023770;28;20166;-86
2023/04/01 05:13:46;;;;;;;66.80;10.63;;;10.50;99.90;;;;;;5024213;28;20606;-85
2023/04/01 05:16:15;;;;;;;68.20;14.03;;;10.50;99.90;;;;;;5023769;28;20166;-85
2023/04/01 05:18:41;;;;;;;67.90;13.23;;;10.50;99.90;;;;;;5023944;28;20172;-85
2023/04/01 05:21:08;;;;;;;66.57;11.47;;;10.50;99.90;;;;;;5024141;28;20166;-85
2023/04/01 05:23:34;;;;;;;68.90;11.82;;;10.50;99.90;;;;;;5022893;28;20347;-85
2023/04/01 05:26:08;;;;;;;67.40;13.83;;;10.50;99.90;;;;;;5022107;28;20217;-85
2023/04/01 05:28:34;;;;;;;67.88;15.18;;;10.60;99.90;;;;;;5023916;28;20397;-85
2023/04/01 05:31:01;;;;;;;66.70;11.60;;;10.60;99.90;;;;;;5022852;28;20165;-84
2023/04/01 05:33:27;;;;;;;66.78;10.75;;;10.50;99.90;;;;;;5024040;28;20724;-86
2023/04/01 05:35:56;;;;;;;67.40;9.23;;;10.50;99.90;;;;;;5022735;28;20588;-85
2023/04/01 05:38:22;;;;;;;66.82;10.00;;;10.50;99.90;;;;;;5023733;28;20172;-85
2023/04/01 05:40:48;;;;;;;65.65;7.45;;;10.50;99.90;;;;;;5022309;28;20170;-85
2023/04/01 05:43:13;;;;;;;66.63;8.40;;;10.50;99.90;;;;;;5021564;28;20593;-84
2023/04/01 05:45:39;;;;;;;65.97;8.80;;;10.50;99.90;;;;;;5022038;28;20166;-86
2023/04/01 05:48:05;;;;;;;65.87;8.13;;;10.40;99.90;;;;;;5021707;28;20588;-85
2023/04/01 05:50:31;;;;;;;66.33;9.17;;;10.40;99.90;;;;;;5022312;28;20212;-85
2023/04/01 05:52:57;;;;;;;66.60;8.85;;;10.50;99.90;;;;;;5021831;28;20979;-84
2023/04/01 05:55:25;;;;;;;67.80;11.50;;;10.50;99.90;;;;;;5090982;23;21065;-82
2023/04/01 05:57:54;;;;;;;67.13;11.32;;;10.50;99.90;;;;;;5019546;28;20245;-79
2023/04/01 06:00:20;;;;;;;68.38;11.95;;;10.50;99.90;;;;;;5017936;28;20219;-79
2023/04/01 06:02:46;;;;;;;68.05;12.30;;;10.40;99.90;;;;;;5019385;28;20650;-79
2023/04/01 06:05:23;;;;;;;69.67;16.50;;;10.40;99.90;;;;;;5018107;28;20174;-79
2023/04/01 06:07:54;;;;;;;68.18;14.07;;;10.40;99.90;;;;;;5018208;28;20189;-79
2023/04/01 06:10:24;;;;;;;71.15;19.75;;;10.40;99.90;;;;;;5019348;28;20180;-79
2023/04/01 06:12:56;;;;;;;71.13;21.90;;;10.40;99.90;;;;;;5019199;28;20251;-79
2023/04/01 06:15:33;;;;;;;70.72;22.45;;;10.40;99.90;;;;;;5019541;28;20177;-79
2023/04/01 06:18:18;;;;;;;73.45;21.02;;;10.50;99.90;;;;;;5017375;28;20168;-78
2023/04/01 06:20:47;;;;;;;70.70;19.33;;;10.50;99.90;;;;;;5019463;28;20154;-79
2023/04/01 06:23:24;;;;;;;72.57;25.73;;;10.50;99.90;;;;;;5018809;28;20204;-78
2023/04/01 06:25:56;;;;;;;71.07;19.77;;;10.50;99.90;;;;;;5019319;28;20150;-81
2023/04/01 06:28:49;;;;;;;71.80;24.30;;;10.60;99.90;;;;;;5019031;28;20166;-79
2023/04/01 06:31:44;;;;;;;72.72;24.52;;;10.60;99.90;;;;;;5018610;28;20149;-80
2023/04/01 06:34:43;;;;;;;74.05;30.02;;;10.60;99.90;;;;;;5013075;28;20225;-81
2023/04/01 06:37:39;;;;;;;74.85;32.28;;;10.60;99.90;;;;;;5017569;28;20169;-81
2023/04/01 06:40:42;;;;;;;74.90;32.33;;;10.60;99.90;;;;;;5017717;28;20159;-81
2023/04/01 06:43:38;;;;;;;74.75;31.42;;;10.70;99.90;;;;;;5016761;28;20212;-81
2023/04/01 06:46:11;;;;;;;74.88;32.85;;;10.70;99.90;;;;;;5018135;28;20154;-80
2023/04/01 06:49:07;;;;;;;76.43;34.10;;;10.70;99.90;;;;;;5017349;28;20154;-81
2023/04/01 06:51:54;;;;;;;74.45;27.52;;;10.70;99.90;;;;;;5017372;28;20240;-79
2023/04/01 06:54:35;;;;;;;73.10;27.13;;;10.80;99.90;;;;;;5017801;28;20193;-78
2023/04/01 06:57:14;;;;;;;72.95;24.75;;;10.80;99.90;;;;;;5017931;28;20561;-79
2023/04/01 06:59:40;;;;;;;71.05;20.70;;;10.90;99.90;;;;;;5018498;28;20161;-79
2023/04/01 07:02:26;;;;;;;72.13;22.20;;;10.90;99.90;;;;;;5016017;28;20257;-79
2023/04/01 07:04:55;;;;;;;72.03;26.40;;;10.90;99.90;;;;;;5017796;28;20182;-80
2023/04/01 07:07:42;;;;;;;70.25;18.02;;;10.80;99.90;;;;;;5016733;28;20568;-79
2023/04/01 07:10:42;;;;;;;71.50;22.70;;;10.90;99.90;;;;;;5017852;28;20212;-79
2023/04/01 07:13:15;;;;;;;86.63;43.63;;;10.90;99.90;;;;;;5017613;28;20181;-79
2023/04/01 07:15:56;;;;;;;71.43;21.63;;;10.90;99.90;;;;;;5017507;28;20618;-78
2023/04/01 07:18:34;;;;;;;70.00;19.33;;;11.00;99.90;;;;;;5017087;28;20162;-80
2023/04/01 07:21:02;;;;;;;69.07;17.23;;;11.00;99.90;;;;;;5017087;28;20236;-80
2023/04/01 07:23:42;;;;;;;69.13;16.67;;;10.90;99.90;;;;;;5016499;28;20225;-80
2023/04/01 07:26:25;;;;;;;69.07;17.35;;;10.80;99.90;;;;;;5015576;28;20193;-78
2023/04/01 07:28:53;;;;;;;71.43;20.92;;;10.90;99.90;;;;;;5017498;28;20222;-80
2023/04/01 07:31:39;;;;;;;70.20;20.35;;;10.80;99.90;;;;;;5016938;28;20153;-80
2023/04/01 07:34:19;;;;;;;73.00;25.40;;;10.80;99.90;;;;;;5016898;28;20699;-80
2023/04/01 07:36:51;;;;;;;73.47;24.13;;;10.80;99.90;;;;;;5016918;28;20241;-80
2023/04/01 07:39:48;;;;;;;71.15;22.50;;;10.80;99.90;;;;;;5016598;28;20160;-80
2023/04/01 07:42:17;;;;;;;69.82;20.08;;;10.90;99.90;;;;;;5016334;28;20158;-79
2023/04/01 07:45:07;;;;;;;71.93;24.25;;;10.90;99.90;;;;;;5016978;28;20194;-78
2023/04/01 07:47:32;;;;;;;72.38;24.88;;;10.90;99.90;;;;;;5016378;28;20150;-80
2023/04/01 07:50:05;;;;;;;73.80;26.33;;;10.80;99.90;;;;;;5015563;28;20169;-80
2023/04/01 07:52:44;;;;;;;72.55;27.10;;;10.90;99.90;;;;;;5015345;28;20157;-80
2023/04/01 07:55:18;;;;;;;72.18;25.20;;;10.80;99.90;;;;;;5015791;28;20154;-80
2023/04/01 07:58:04;;;;;;;72.93;23.83;;;10.80;99.90;;;;;;5015506;28;20233;-80
2023/04/01 08:00:42;;;;;;;72.00;24.65;;;10.90;99.90;;;;;;5016939;28;20170;-78
2023/04/01 08:03:32;;;;;;;71.22;23.15;;;10.90;99.90;;;;;;5016597;28;20243;-80
2023/04/01 08:06:27;;;;;;;71.68;23.23;;;10.90;99.90;;;;;;5016570;28;20154;-80
2023/04/01 08:09:02;;;;;;;72.00;21.55;;;11.00;99.90;;;;;;5012461;28;20209;-80
2023/04/01 08:12:19;;;;;;;69.72;18.92;;;11.10;99.90;;;;;;5016120;28;20162;-78
2023/04/01 08:15:04;;;;;;;69.13;16.02;;;11.10;99.90;;;;;;4954876;28;20172;-78
2023/04/01 08:20:04;;;;;;;68.18;14.27;;;11.00;99.90;;;;;;4975883;28;20218;-81
2023/04/01 08:22:37;;;;;;;67.65;12.13;;;10.90;99.90;;;;;;4977149;28;20237;-78
2023/04/01 08:25:07;;;;;;;70.57;12.48;;;10.90;99.90;;;;;;4977320;28;20183;-79
2023/04/01 08:27:48;;;;;;;68.43;15.02;;;11.00;99.90;;;;;;4976647;28;20167;-79
2023/04/01 08:30:25;;;;;;;67.95;12.55;;;11.10;99.90;;;;;;4977274;28;20147;-80
2023/04/01 08:33:13;;;;;;;69.70;9.13;;;11.10;99.90;;;;;;4975442;28;20183;-79
2023/04/01 08:36:00;;;;;;;68.70;13.02;;;11.10;99.90;;;;;;4976288;28;20159;-79
2023/04/01 08:38:38;;;;;;;66.50;8.25;;;11.10;99.90;;;;;;4977459;28;20143;-79
2023/04/01 08:41:31;;;;;;;69.43;12.25;;;11.00;99.90;;;;;;4977752;28;20206;-79
2023/04/01 08:44:06;;;;;;;67.18;9.40;;;11.00;99.90;;;;;;4975648;28;20197;-79
2023/04/01 08:46:57;;;;;;;66.35;7.72;;;11.10;99.90;;;;;;4976968;28;20242;-79
2023/04/01 08:49:57;;;;;;;66.85;9.38;;;11.10;99.90;;;;;;4977556;28;20159;-79
2023/04/01 08:52:31;;;;;;;66.80;9.52;;;11.20;99.90;;;;;;4975089;28;20168;-78
2023/04/01 08:55:27;;;;;;;66.70;8.40;;;11.20;99.90;;;;;;4975960;28;20147;-78
2023/04/01 08:57:59;;;;;;;68.43;13.18;;;11.20;99.90;;;;;;4968231;28;20183;-78
2023/04/01 09:00:32;;;;;;;66.63;8.55;;;11.20;99.90;;;;;;4990525;28;20175;-78
2023/04/01 09:03:30;;;;;;;67.13;8.02;;;11.20;99.90;;;;;;4975479;28;20195;-78
2023/04/01 09:06:14;;;;;;;68.05;8.68;;;11.10;99.90;;;;;;4975507;28;20206;-80
2023/04/01 09:08:42;;;;;;;66.15;7.60;;;11.10;99.90;;;;;;4975115;28;20211;-80
2023/04/01 09:11:21;;;;;;;67.70;6.25;;;11.10;99.90;;;;;;4990060;28;20537;-78
2023/04/01 09:14:23;;;;;;;66.45;6.70;;;11.20;99.90;;;;;;4975106;28;20183;-78
2023/04/01 09:17:03;;;;;;;65.78;6.18;;;11.30;99.90;;;;;;4975470;28;20187;-78
2023/04/01 09:20:14;;;;;;;66.78;7.95;;;11.20;99.90;;;;;;4975396;28;20202;-78
2023/04/01 09:23:08;;;;;;;67.32;9.50;;;11.30;99.90;;;;;;4975155;28;20598;-78
2023/04/01 09:25:55;;;;;;;67.38;9.88;;;11.40;99.90;;;;;;4991809;28;20250;-78
2023/04/01 09:28:49;;;;;;;74.10;13.95;;;11.50;99.90;;;;;;4978511;28;20162;-79
2023/04/01 09:31:21;;;;;;;67.22;9.55;;;11.50;99.90;;;;;;4978137;28;20195;-78
2023/04/01 09:34:19;;;;;;;66.72;9.40;;;11.60;99.90;;;;;;4993619;28;20226;-78
2023/04/01 09:36:52;;;;;;;65.95;7.10;;;11.70;99.90;;;;;;4953708;28;20190;-78
2023/04/01 09:39:35;;;;;;;68.85;10.82;;;11.70;99.90;;;;;;4979590;28;20187;-80
2023/04/01 09:42:01;;;;;;;65.55;6.78;;;11.60;99.90;;;;;;4977431;28;20163;-80
2023/04/01 09:44:45;;;;;;;65.97;6.20;;;11.60;99.90;;;;;;4994020;28;20198;-80
2023/04/01 09:47:49;;;;;;;65.88;6.07;;;11.70;99.90;;;;;;4978055;28;20169;-80
2023/04/01 09:50:36;;;;;;;69.28;9.50;;;11.80;99.90;;;;;;4948782;28;20183;-80
2023/04/01 09:53:32;;;;;;;65.63;6.05;;;11.80;99.90;;;;;;4979082;28;20226;-80
2023/04/01 09:56:29;;;;;;;66.65;8.82;;;11.90;99.90;;;;;;4979142;28;20171;-80
2023/04/01 09:59:23;;;;;;;66.95;9.63;;;11.90;99.90;;;;;;4994215;28;20148;-80
2023/04/01 10:02:10;;;;;;;67.32;10.80;;;11.80;99.90;;;;;;4994317;28;20159;-80
2023/04/01 10:05:11;;;;;;;67.55;13.65;;;11.80;99.90;;;;;;4978831;28;20763;-79
2023/04/01 10:07:58;;;;;;;67.47;12.18;;;11.80;99.90;;;;;;4979482;28;20535;-81
2023/04/01 10:10:53;;;;;;;68.18;13.23;;;11.80;99.90;;;;;;4979234;28;20166;-80
2023/04/01 10:14:02;;;;;;;67.55;11.77;;;11.80;99.90;;;;;;4979389;28;20192;-78
2023/04/01 10:17:01;;;;;;;67.80;12.00;;;11.80;99.90;;;;;;4939617;28;20183;-79
2023/04/01 10:20:05;;;;;;;69.65;17.30;;;11.80;99.90;;;;;;4979028;28;20183;-79
2023/04/01 10:23:18;;;;;;;67.35;11.10;;;11.60;99.90;;;;;;4979016;28;20171;-79
2023/04/01 10:26:05;;;;;;;72.50;16.00;;;11.50;99.90;;;;;;4979361;28;20186;-79
2023/04/01 10:28:52;;;;;;;65.70;9.40;;;11.40;99.90;;;;;;4979423;28;20258;-79
2023/04/01 10:31:49;;;;;;;65.93;7.35;;;11.40;99.90;;;;;;4979077;28;20170;-79
2023/04/01 10:34:40;;;;;;;78.35;27.60;;;11.50;99.90;;;;;;4994341;28;20191;-79
2023/04/01 10:37:27;;;;;;;65.22;6.60;;;11.50;99.90;;;;;;4978227;28;20174;-79
2023/04/01 10:40:14;;;;;;;65.43;6.63;;;11.50;99.90;;;;;;4979997;28;20175;-79
2023/04/01 10:43:01;;;;;;;66.40;7.70;;;11.60;99.90;;;;;;4979210;28;20194;-79
2023/04/01 10:46:04;;;;;;;68.55;8.35;;;11.70;99.90;;;;;;4979513;28;20186;-79
2023/04/01 10:48:57;;;;;;;66.53;9.07;;;11.80;99.90;;;;;;4979107;28;20167;-79
2023/04/01 10:51:37;;;;;;;65.65;7.63;;;11.80;99.90;;;;;;4979374;28;20163;-81
2023/04/01 10:54:15;;;;;;;66.82;9.40;;;11.80;99.90;;;;;;4993697;28;20190;-81
2023/04/01 10:57:00;;;;;;;66.82;10.13;;;11.80;99.90;;;;;;4978602;28;20162;-81
2023/04/01 10:59:58;;;;;;;66.00;8.45;;;11.80;99.90;;;;;;4979155;28;20151;-81
2023/04/01 11:02:57;;;;;;;66.97;9.43;;;11.80;99.90;;;;;;4993446;28;20177;-80
2023/04/01 11:05:44;;;;;;;67.07;10.45;;;11.70;99.90;;;;;;4978454;28;20160;-81
2023/04/01 11:10:55;;;;;;;65.72;7.80;;;11.70;99.90;;;;;;5088427;23;20687;-80
2023/04/01 11:13:52;;;;;;;65.88;7.80;;;11.60;99.90;;;;;;5017391;28;20196;-80
2023/04/01 11:16:42;;;;;;;65.65;8.00;;;11.60;99.90;;;;;;5016764;28;20503;-80
2023/04/01 11:19:11;;;;;;;65.03;7.38;;;11.70;99.90;;;;;;5018104;28;20154;-80
2023/04/01 11:22:17;;;;;;;66.78;9.35;;;11.70;99.90;;;;;;5017744;28;20211;-80
2023/04/01 11:25:00;;;;;;;64.93;6.68;;;11.60;99.90;;;;;;5017324;28;20188;-80
2023/04/01 11:27:40;;;;;;;66.55;8.98;;;11.70;99.90;;;;;;5017171;28;20154;-80
2023/04/01 11:30:27;;;;;;;66.07;6.95;;;11.70;99.90;;;;;;5017266;28;20161;-80
2023/04/01 11:33:13;;;;;;;65.32;7.32;;;11.70;99.90;;;;;;5017199;28;20182;-80
2023/04/01 11:36:07;;;;;;;65.68;6.60;;;11.80;99.90;;;;;;5016157;28;20248;-79
2023/04/01 11:38:50;;;;;;;65.47;5.30;;;12.00;99.90;;;;;;5016576;28;20154;-78
2023/04/01 11:41:38;;;;;;;65.20;6.90;;;12.10;99.90;;;;;;5017089;28;20150;-78
2023/04/01 11:44:24;;;;;;;65.80;7.97;;;12.20;99.90;;;;;;5016424;28;20530;-79
2023/04/01 11:47:08;;;;;;;65.32;7.40;;;12.20;99.90;;;;;;5016207;28;20553;-78
2023/04/01 11:49:55;;;;;;;66.25;8.27;;;12.20;99.90;;;;;;5014921;28;20161;-78
2023/04/01 11:52:52;;;;;;;66.43;9.68;;;12.30;99.90;;;;;;5015166;28;20223;-78
2023/04/01 11:58:33;;;;;;;68.05;12.02;;;12.40;99.90;;;;;;4923771;29;20233;-86
2023/04/01 12:01:37;;;;;;;66.82;11.15;;;12.50;99.90;;;;;;4924086;29;20225;-86
2023/04/01 12:04:23;;;;;;;66.53;10.57;;;12.60;99.90;;;;;;4903004;29;20585;-85
2023/04/01 12:07:01;;;;;;;67.43;12.43;;;12.70;99.90;;;;;;4904563;29;20206;-85
2023/04/01 12:09:53;;;;;;;67.00;11.95;;;12.90;99.90;;;;;;4905599;29;20229;-86
2023/04/01 12:12:40;;;;;;;66.72;9.02;;;13.00;99.90;;;;;;4904613;29;20170;-86
2023/04/01 12:15:20;;;;;;;64.63;6.25;;;13.00;99.90;;;;;;4905430;29;20158;-85
2023/04/01 12:17:55;;;;;;;65.22;7.28;;;12.90;99.90;;;;;;4905053;29;20244;-86
2023/04/01 12:20:34;;;;;;;64.97;7.82;;;12.80;99.90;;;;;;4905186;29;20322;-86
2023/04/01 12:23:09;;;;;;;65.63;10.32;;;12.70;99.90;;;;;;4904940;29;20197;-86
2023/04/01 12:25:57;;;;;;;65.47;7.57;;;12.80;99.90;;;;;;4905506;29;20161;-84
2023/04/01 12:28:55;;;;;;;64.75;6.88;;;12.80;99.90;;;;;;4904692;29;20533;-85
2023/04/01 12:31:32;;;;;;;65.88;7.13;;;12.90;99.90;;;;;;4920011;29;20162;-86
2023/04/01 12:34:30;;;;;;;65.57;7.22;;;12.90;99.90;;;;;;4904458;29;20212;-86
2023/04/01 12:37:34;;;;;;;66.45;10.40;;;12.90;99.90;;;;;;4905215;29;20154;-86
2023/04/01 12:40:26;;;;;;;67.00;8.07;;;12.80;99.90;;;;;;4903724;29;20177;-86
2023/04/01 12:43:23;;;;;;;67.78;10.73;;;12.90;99.90;;;;;;4899007;29;20261;-85
2023/04/01 12:46:00;;;;;;;66.32;11.73;;;13.10;99.90;;;;;;4904773;29;20174;-85
2023/04/01 12:48:48;;;;;;;66.05;9.77;;;13.20;99.90;;;;;;4903340;29;20158;-85
2023/04/01 12:51:31;;;;;;;65.07;6.85;;;13.20;99.90;;;;;;4919024;29;20173;-84
2023/04/01 12:54:31;;;;;;;64.43;4.30;;;13.30;99.90;;;;;;4918588;29;20534;-84
2023/04/01 12:57:34;;;;;;;64.15;5.28;;;13.30;99.90;;;;;;4919289;29;20229;-86
2023/04/01 13:00:25;;;;;;;64.65;5.05;;;13.40;99.90;;;;;;4904804;29;20176;-85
2023/04/01 13:03:32;;;;;;;63.78;4.57;;;13.40;99.90;;;;;;4907805;29;20188;-84
2023/04/01 13:06:20;;;;;;;65.00;6.05;;;13.40;99.90;;;;;;4908325;29;20733;-85
2023/04/01 13:09:01;;;;;;;65.20;7.57;;;13.40;99.90;;;;;;4909021;29;20161;-85
2023/04/01 13:11:32;;;;;;;64.60;5.80;;;13.40;99.90;;;;;;4907869;29;20519;-85
2023/04/01 13:14:10;;;;;;;65.07;7.20;;;13.40;99.90;;;;;;4908317;29;20194;-85
2023/04/01 13:16:57;;;;;;;64.80;6.32;;;13.40;99.90;;;;;;4908352;29;20196;-85
2023/04/01 13:19:31;;;;;;;64.53;6.15;;;13.30;99.90;;;;;;4907656;29;20260;-84
2023/04/01 13:22:33;;;;;;;64.20;5.80;;;13.30;99.90;;;;;;4908597;29;20232;-85
2023/04/01 13:25:18;;;;;;;64.28;5.72;;;13.30;99.90;;;;;;4907802;29;20189;-85
2023/04/01 13:27:49;;;;;;;64.38;5.38;;;13.10;99.90;;;;;;4908047;29;20563;-84
2023/04/01 13:30:37;;;;;;;66.63;7.40;;;12.80;99.90;;;;;;4907883;29;20160;-85